sensor_id;sensor_type;location;lat;lon;timestamp;pressure;altitude;pressure_sealevel;temperature;humidity
20228;BME280;12195;55.790;37.572;2023-07-20T00:00:29;98355.82;;;14.48;76.61
20228;BME280;12195;55.790;37.572;2023-07-20T00:03:13;98352.34;;;14.48;76.73
20228;BME280;12195;55.790;37.572;2023-07-20T00:05:58;98358.06;;;14.34;77.47
20228;BME280;12195;55.790;37.572;2023-07-20T00:08:31;98364.97;;;13.97;79.04
20228;BME280;12195;55.790;37.572;2023-07-20T00:11:13;98366.92;;;14.14;77.77
20228;BME280;12195;55.790;37.572;2023-07-20T00:13:46;98366.92;;;14.14;77.77
20228;BME280;12195;55.790;37.572;2023-07-20T00:16:28;98354.26;;;14.08;77.35
20228;BME280;12195;55.790;37.572;2023-07-20T00:19:01;98354.26;;;14.08;77.35
20228;BME280;12195;55.790;37.572;2023-07-20T00:21:46;98371.94;;;14.36;77.45
20228;BME280;12195;55.790;37.572;2023-07-20T00:24:28;98355.83;;;14.39;76.96
20228;BME280;12195;55.790;37.572;2023-07-20T00:27:01;98366.08;;;14.13;76.99
20228;BME280;12195;55.790;37.572;2023-07-20T00:29:44;98363.61;;;14.31;77.41
20228;BME280;12195;55.790;37.572;2023-07-20T00:32:16;98366.91;;;14.04;77.26
20228;BME280;12195;55.790;37.572;2023-07-20T00:35:02;98371.67;;;14.29;77.29
20228;BME280;12195;55.790;37.572;2023-07-20T00:37:46;98375.83;;;14.22;77.36
20228;BME280;12195;55.790;37.572;2023-07-20T00:40:21;98359.55;;;13.89;77.25
20228;BME280;12195;55.790;37.572;2023-07-20T00:43:05;98370.11;;;14.17;77.53
20228;BME280;12195;55.790;37.572;2023-07-20T00:45:39;98391.36;;;13.97;77.43
20228;BME280;12195;55.790;37.572;2023-07-20T00:48:21;98385.27;;;14.15;77.46
20228;BME280;12195;55.790;37.572;2023-07-20T00:51:06;98385.80;;;14.09;77.76
20228;BME280;12195;55.790;37.572;2023-07-20T00:53:51;98386.09;;;14.06;77.86
20228;BME280;12195;55.790;37.572;2023-07-20T00:56:36;98392.45;;;14.04;78.09
20228;BME280;12195;55.790;37.572;2023-07-20T00:59:20;98382.70;;;13.85;79.75
20228;BME280;12195;55.790;37.572;2023-07-20T01:01:53;98382.27;;;13.71;78.97
20228;BME280;12195;55.790;37.572;2023-07-20T01:04:25;98388.94;;;13.75;78.59
20228;BME280;12195;55.790;37.572;2023-07-20T01:09:58;98389.50;;;13.69;78.62
20228;BME280;12195;55.790;37.572;2023-07-20T01:12:41;98395.51;;;13.90;78.83
20228;BME280;12195;55.790;37.572;2023-07-20T01:15:14;98391.13;;;13.60;78.89
20228;BME280;12195;55.790;37.572;2023-07-20T01:17:59;98390.23;;;13.90;79.00
20228;BME280;12195;55.790;37.572;2023-07-20T01:20:42;98392.72;;;13.82;79.11
20228;BME280;12195;55.790;37.572;2023-07-20T01:27:10;98391.89;;;13.91;78.60
20228;BME280;12195;55.790;37.572;2023-07-20T01:29:52;98387.38;;;13.63;78.75
20228;BME280;12195;55.790;37.572;2023-07-20T01:32:29;98396.33;;;13.81;78.82
20228;BME280;12195;55.790;37.572;2023-07-20T01:35:16;98391.60;;;13.84;79.01
20228;BME280;12195;55.790;37.572;2023-07-20T01:37:51;98391.13;;;13.60;79.09
20228;BME280;12195;55.790;37.572;2023-07-20T01:40:34;98401.34;;;13.84;79.11
20228;BME280;12195;55.790;37.572;2023-07-20T01:43:08;98401.55;;;13.62;79.13
20228;BME280;12195;55.790;37.572;2023-07-20T01:45:50;98397.73;;;13.85;79.23
20228;BME280;12195;55.790;37.572;2023-07-20T01:48:23;98393.89;;;13.59;79.39
20228;BME280;12195;55.790;37.572;2023-07-20T01:51:09;98390.47;;;13.77;79.60
20228;BME280;12195;55.790;37.572;2023-07-20T01:53:43;98392.95;;;13.60;79.61
20228;BME280;12195;55.790;37.572;2023-07-20T01:56:27;98393.69;;;13.81;79.76
20228;BME280;12195;55.790;37.572;2023-07-20T01:59:00;98393.37;;;13.65;79.35
20228;BME280;12195;55.790;37.572;2023-07-20T02:01:44;98390.63;;;13.85;79.41
20228;BME280;12195;55.790;37.572;2023-07-20T02:04:27;98390.63;;;13.85;79.48
20228;BME280;12195;55.790;37.572;2023-07-20T02:07:01;98386.86;;;13.69;79.25
20228;BME280;12195;55.790;37.572;2023-07-20T02:09:46;98387.74;;;13.98;78.97
20228;BME280;12195;55.790;37.572;2023-07-20T02:12:28;98394.00;;;13.97;78.99
20228;BME280;12195;55.790;37.572;2023-07-20T02:15:02;98385.52;;;13.84;78.52
20228;BME280;12195;55.790;37.572;2023-07-20T02:17:35;98385.52;;;13.84;78.52
20228;BME280;12195;55.790;37.572;2023-07-20T02:20:18;98391.08;;;14.09;78.42
20228;BME280;12195;55.790;37.572;2023-07-20T02:22:51;98384.11;;;13.89;78.24
20228;BME280;12195;55.790;37.572;2023-07-20T02:25:37;98391.79;;;14.11;78.41
20228;BME280;12195;55.790;37.572;2023-07-20T02:28:21;98402.63;;;14.18;78.16
20228;BME280;12195;55.790;37.572;2023-07-20T02:31:06;98392.07;;;14.18;78.02
20228;BME280;12195;55.790;37.572;2023-07-20T02:33:51;98398.03;;;14.20;77.83
20228;BME280;12195;55.790;37.572;2023-07-20T02:36:23;98398.45;;;14.06;77.46
20228;BME280;12195;55.790;37.572;2023-07-20T02:39:08;98401.26;;;14.33;77.22
20228;BME280;12195;55.790;37.572;2023-07-20T02:41:41;98394.30;;;14.13;77.28
20228;BME280;12195;55.790;37.572;2023-07-20T02:44:25;98398.62;;;14.33;77.36
20228;BME280;12195;55.790;37.572;2023-07-20T02:46:58;98378.59;;;14.20;76.84
20228;BME280;12195;55.790;37.572;2023-07-20T02:49:42;98406.41;;;14.44;77.04
20228;BME280;12195;55.790;37.572;2023-07-20T02:52:15;98406.13;;;14.28;76.65
20228;BME280;12195;55.790;37.572;2023-07-20T02:55:00;98418.94;;;14.51;76.83
20228;BME280;12195;55.790;37.572;2023-07-20T02:57:42;98422.13;;;14.55;76.50
20228;BME280;12195;55.790;37.572;2023-07-20T03:00:15;98408.50;;;14.40;76.15
20228;BME280;12195;55.790;37.572;2023-07-20T03:03:04;98416.98;;;14.63;76.34
20228;BME280;12195;55.790;37.572;2023-07-20T03:05:41;98420.88;;;14.49;76.03
20228;BME280;12195;55.790;37.572;2023-07-20T03:08:26;98416.66;;;14.75;75.87
20228;BME280;12195;55.790;37.572;2023-07-20T03:10:59;98415.31;;;14.62;75.41
20228;BME280;12195;55.790;37.572;2023-07-20T03:14:05;98416.92;;;14.91;74.70
20228;BME280;12195;55.790;37.572;2023-07-20T03:16:38;98414.16;;;14.74;74.35
20228;BME280;12195;55.790;37.572;2023-07-20T03:19:20;98427.75;;;14.98;73.93
20228;BME280;12195;55.790;37.572;2023-07-20T03:22:05;98430.31;;;14.80;74.12
20228;BME280;12195;55.790;37.572;2023-07-20T03:24:49;98419.41;;;15.02;74.41
20228;BME280;12195;55.790;37.572;2023-07-20T03:27:35;98420.55;;;14.90;74.51
20228;BME280;12195;55.790;37.572;2023-07-20T03:30:08;98420.55;;;14.90;74.51
20228;BME280;12195;55.790;37.572;2023-07-20T03:32:53;98436.78;;;15.14;74.26
20228;BME280;12195;55.790;37.572;2023-07-20T03:35:38;98432.42;;;15.23;74.23
20228;BME280;12195;55.790;37.572;2023-07-20T03:38:23;98435.64;;;15.36;73.53
20228;BME280;12195;55.790;37.572;2023-07-20T03:40:58;98427.72;;;15.17;73.45
20228;BME280;12195;55.790;37.572;2023-07-20T03:43:42;98426.44;;;15.30;73.61
20228;BME280;12195;55.790;37.572;2023-07-20T03:46:14;98426.44;;;15.30;73.61
20228;BME280;12195;55.790;37.572;2023-07-20T03:48:47;98429.86;;;15.50;72.97
20228;BME280;12195;55.790;37.572;2023-07-20T03:51:31;98434.34;;;15.76;72.67
20228;BME280;12195;55.790;37.572;2023-07-20T03:54:16;98429.38;;;15.91;71.92
20228;BME280;12195;55.790;37.572;2023-07-20T03:56:50;98428.71;;;15.89;71.37
20228;BME280;12195;55.790;37.572;2023-07-20T03:59:23;98430.32;;;16.17;71.37
20228;BME280;12195;55.790;37.572;2023-07-20T04:02:06;98433.70;;;16.54;70.12
20228;BME280;12195;55.790;37.572;2023-07-20T04:04:50;98433.03;;;16.70;69.26
20228;BME280;12195;55.790;37.572;2023-07-20T04:07:32;98439.61;;;16.83;68.90
20228;BME280;12195;55.790;37.572;2023-07-20T04:10:06;98438.91;;;16.81;67.77
20228;BME280;12195;55.790;37.572;2023-07-20T04:12:52;98432.02;;;17.14;68.11
20228;BME280;12195;55.790;37.572;2023-07-20T04:15:25;98428.80;;;17.02;67.40
20228;BME280;12195;55.790;37.572;2023-07-20T04:18:08;98442.73;;;17.30;66.82
20228;BME280;12195;55.790;37.572;2023-07-20T04:20:51;98434.72;;;17.22;67.06
20228;BME280;12195;55.790;37.572;2023-07-20T04:23:25;98428.13;;;17.00;67.15
20228;BME280;12195;55.790;37.572;2023-07-20T04:26:08;98437.71;;;17.19;67.52
20228;BME280;12195;55.790;37.572;2023-07-20T04:28:53;98434.72;;;17.22;67.45
20228;BME280;12195;55.790;37.572;2023-07-20T04:31:41;98433.76;;;16.80;67.96
20228;BME280;12195;55.790;37.572;2023-07-20T04:34:27;98423.95;;;17.23;68.11
20228;BME280;12195;55.790;37.572;2023-07-20T04:37:01;98426.56;;;17.15;67.31
20228;BME280;12195;55.790;37.572;2023-07-20T04:39:46;98429.67;;;17.36;67.11
20228;BME280;12195;55.790;37.572;2023-07-20T04:42:20;98431.20;;;17.13;66.83
20228;BME280;12195;55.790;37.572;2023-07-20T04:45:06;98433.12;;;17.29;67.37
20228;BME280;12195;55.790;37.572;2023-07-20T04:47:50;98433.22;;;17.19;67.83
20228;BME280;12195;55.790;37.572;2023-07-20T04:50:23;98433.44;;;17.00;68.07
20228;BME280;12195;55.790;37.572;2023-07-20T04:53:09;98435.56;;;17.22;68.32
20228;BME280;12195;55.790;37.572;2023-07-20T04:55:54;98439.27;;;17.29;68.11
20228;BME280;12195;55.790;37.572;2023-07-20T04:58:28;98429.09;;;16.99;68.31
20228;BME280;12195;55.790;37.572;2023-07-20T05:01:12;98444.02;;;17.43;68.14
20228;BME280;12195;55.790;37.572;2023-07-20T05:03:58;98445.77;;;17.60;67.33
20228;BME280;12195;55.790;37.572;2023-07-20T05:06:32;98440.91;;;17.48;66.50
20228;BME280;12195;55.790;37.572;2023-07-20T05:09:18;98442.56;;;17.82;65.95
20228;BME280;12195;55.790;37.572;2023-07-20T05:11:51;98443.48;;;17.40;66.04
20228;BME280;12195;55.790;37.572;2023-07-20T05:14:35;98448.38;;;17.86;65.79
20228;BME280;12195;55.790;37.572;2023-07-20T05:17:09;98443.99;;;17.69;64.83
20228;BME280;12195;55.790;37.572;2023-07-20T05:19:54;98447.56;;;17.93;65.17
20228;BME280;12195;55.790;37.572;2023-07-20T05:22:29;98446.37;;;17.80;65.13
20228;BME280;12195;55.790;37.572;2023-07-20T05:25:14;98453.94;;;18.08;64.74
20228;BME280;12195;55.790;37.572;2023-07-20T05:28:01;98454.81;;;18.17;64.39
20228;BME280;12195;55.790;37.572;2023-07-20T05:30:34;98442.28;;;18.01;63.50
20228;BME280;12195;55.790;37.572;2023-07-20T05:33:21;98454.64;;;18.26;64.37
20228;BME280;12195;55.790;37.572;2023-07-20T05:35:56;98444.25;;;17.91;64.03
20228;BME280;12195;55.790;37.572;2023-07-20T05:38:29;98448.16;;;18.13;63.96
20228;BME280;12195;55.790;37.572;2023-07-20T05:41:11;98452.07;;;18.50;63.16
20228;BME280;12195;55.790;37.572;2023-07-20T05:43:45;98450.51;;;18.32;62.51
20228;BME280;12195;55.790;37.572;2023-07-20T05:46:30;98450.27;;;18.59;62.83
20228;BME280;12195;55.790;37.572;2023-07-20T05:49:16;98451.60;;;18.63;61.83
20228;BME280;12195;55.790;37.572;2023-07-20T05:51:49;98440.27;;;18.45;62.22
20228;BME280;12195;55.790;37.572;2023-07-20T05:54:34;98456.41;;;18.75;61.64
20228;BME280;12195;55.790;37.572;2023-07-20T05:57:19;98455.28;;;18.78;61.96
20228;BME280;12195;55.790;37.572;2023-07-20T06:00:02;98445.30;;;18.88;61.18
20228;BME280;12195;55.790;37.572;2023-07-20T06:02:49;98448.44;;;18.91;61.10
20228;BME280;12195;55.790;37.572;2023-07-20T06:05:24;98452.78;;;18.76;59.36
20228;BME280;12195;55.790;37.572;2023-07-20T06:08:10;98455.09;;;18.95;60.02
20228;BME280;12195;55.790;37.572;2023-07-20T06:10:53;98447.80;;;18.89;60.45
20228;BME280;12195;55.790;37.572;2023-07-20T06:13:26;98450.61;;;18.88;59.56
20228;BME280;12195;55.790;37.572;2023-07-20T06:16:11;98444.11;;;19.22;58.71
20228;BME280;12195;55.790;37.572;2023-07-20T06:18:45;98442.79;;;19.10;58.45
20228;BME280;12195;55.790;37.572;2023-07-20T06:21:32;98461.89;;;19.46;57.69
20228;BME280;12195;55.790;37.572;2023-07-20T06:24:05;98456.59;;;19.30;56.88
20228;BME280;12195;55.790;37.572;2023-07-20T06:26:51;98455.38;;;19.56;57.00
20228;BME280;12195;55.790;37.572;2023-07-20T06:29:25;98454.94;;;19.29;57.65
20228;BME280;12195;55.790;37.572;2023-07-20T06:32:12;98449.50;;;19.77;55.86
20228;BME280;12195;55.790;37.572;2023-07-20T06:34:46;98457.38;;;19.62;55.57
20228;BME280;12195;55.790;37.572;2023-07-20T06:37:33;98441.11;;;19.88;55.50
20228;BME280;12195;55.790;37.572;2023-07-20T06:40:19;98453.45;;;19.89;54.77
20228;BME280;12195;55.790;37.572;2023-07-20T06:43:05;98450.92;;;19.95;53.53
20228;BME280;12195;55.790;37.572;2023-07-20T06:45:41;98454.32;;;19.73;53.00
20228;BME280;12195;55.790;37.572;2023-07-20T06:48:24;98447.08;;;19.98;53.03
20228;BME280;12195;55.790;37.572;2023-07-20T06:50:58;98445.32;;;19.82;52.50
20228;BME280;12195;55.790;37.572;2023-07-20T06:53:44;98448.39;;;20.10;52.57
20228;BME280;12195;55.790;37.572;2023-07-20T06:56:29;98451.48;;;20.21;51.99
20228;BME280;12195;55.790;37.572;2023-07-20T06:59:16;98451.45;;;20.29;50.55
20228;BME280;12195;55.790;37.572;2023-07-20T07:01:51;98452.16;;;20.23;48.58
20228;BME280;12195;55.790;37.572;2023-07-20T07:04:26;98453.31;;;20.21;47.88
20228;BME280;12195;55.790;37.572;2023-07-20T07:07:14;98461.55;;;20.42;48.37
20228;BME280;12195;55.790;37.572;2023-07-20T07:09:49;98458.93;;;20.34;48.04
20228;BME280;12195;55.790;37.572;2023-07-20T07:12:36;98457.65;;;20.53;48.61
20228;BME280;12195;55.790;37.572;2023-07-20T07:15:11;98452.00;;;20.17;48.42
20228;BME280;12195;55.790;37.572;2023-07-20T07:17:56;98466.58;;;20.59;48.29
20228;BME280;12195;55.790;37.572;2023-07-20T07:20:41;98456.09;;;20.81;47.62
20228;BME280;12195;55.790;37.572;2023-07-20T07:23:27;98455.19;;;20.96;46.61
20228;BME280;12195;55.790;37.572;2023-07-20T07:26:05;98455.86;;;20.90;47.51
20228;BME280;12195;55.790;37.572;2023-07-20T07:28:51;98460.50;;;21.19;46.11
20228;BME280;12195;55.790;37.572;2023-07-20T07:31:38;98466.96;;;21.24;45.57
20228;BME280;12195;55.790;37.572;2023-07-20T07:34:12;98453.82;;;21.00;43.87
20228;BME280;12195;55.790;37.572;2023-07-20T07:36:59;98465.45;;;21.22;44.63
20228;BME280;12195;55.790;37.572;2023-07-20T07:39:33;98463.23;;;21.11;44.15
20228;BME280;12195;55.790;37.572;2023-07-20T07:42:19;98463.93;;;21.42;44.04
20228;BME280;12195;55.790;37.572;2023-07-20T07:44:57;98454.70;;;21.30;44.25
20228;BME280;12195;55.790;37.572;2023-07-20T07:47:42;98466.44;;;21.58;45.07
20228;BME280;12195;55.790;37.572;2023-07-20T07:50:29;98459.98;;;21.67;45.96
20228;BME280;12195;55.790;37.572;2023-07-20T07:53:13;98470.44;;;21.76;44.36
20228;BME280;12195;55.790;37.572;2023-07-20T07:55:51;98463.31;;;21.54;43.94
20228;BME280;12195;55.790;37.572;2023-07-20T07:58:38;98474.67;;;21.85;44.30
20228;BME280;12195;55.790;37.572;2023-07-20T08:01:11;98470.92;;;21.80;43.16
20228;BME280;12195;55.790;37.572;2023-07-20T08:03:56;98462.78;;;22.17;43.73
20228;BME280;12195;55.790;37.572;2023-07-20T08:06:41;98474.45;;;22.30;43.33
20228;BME280;12195;55.790;37.572;2023-07-20T08:09:15;98452.05;;;22.31;42.59
20228;BME280;12195;55.790;37.572;2023-07-20T08:12:02;98455.83;;;22.93;42.70
20228;BME280;12195;55.790;37.572;2023-07-20T08:14:37;98445.33;;;23.19;41.01
20228;BME280;12195;55.790;37.572;2023-07-20T08:17:25;98455.97;;;23.61;39.41
20228;BME280;12195;55.790;37.572;2023-07-20T08:20:13;98460.14;;;23.64;40.27
20228;BME280;12195;55.790;37.572;2023-07-20T08:22:49;98459.22;;;23.50;39.66
20228;BME280;12195;55.790;37.572;2023-07-20T08:25:24;98452.25;;;23.56;39.58
20228;BME280;12195;55.790;37.572;2023-07-20T08:28:07;98474.47;;;23.84;39.34
20228;BME280;12195;55.790;37.572;2023-07-20T08:30:44;98465.23;;;23.59;39.44
20228;BME280;12195;55.790;37.572;2023-07-20T08:33:27;98474.28;;;23.85;39.89
20228;BME280;12195;55.790;37.572;2023-07-20T08:36:03;98464.23;;;23.60;39.41
20228;BME280;12195;55.790;37.572;2023-07-20T08:38:49;98478.32;;;24.02;40.05
20228;BME280;12195;55.790;37.572;2023-07-20T08:41:23;98463.36;;;23.53;39.98
20228;BME280;12195;55.790;37.572;2023-07-20T08:44:10;98467.84;;;24.07;38.99
20228;BME280;12195;55.790;37.572;2023-07-20T08:47:15;98475.70;;;24.09;38.93
20228;BME280;12195;55.790;37.572;2023-07-20T08:49:59;98485.80;;;23.79;38.74
20228;BME280;12195;55.790;37.572;2023-07-20T08:52:44;98477.90;;;23.99;39.53
20228;BME280;12195;55.790;37.572;2023-07-20T08:55:31;98470.53;;;23.80;40.06
20228;BME280;12195;55.790;37.572;2023-07-20T08:58:09;98460.14;;;23.64;40.49
20228;BME280;12195;55.790;37.572;2023-07-20T09:00:47;98468.41;;;23.69;39.70
20228;BME280;12195;55.790;37.572;2023-07-20T09:03:35;98479.97;;;23.97;40.45
20228;BME280;12195;55.790;37.572;2023-07-20T09:06:14;98468.00;;;23.72;40.58
20228;BME280;12195;55.790;37.572;2023-07-20T09:08:59;98478.08;;;24.31;39.95
20228;BME280;12195;55.790;37.572;2023-07-20T09:11:36;98471.22;;;24.29;39.17
20228;BME280;12195;55.790;37.572;2023-07-20T09:14:23;98465.63;;;24.71;39.56
20228;BME280;12195;55.790;37.572;2023-07-20T09:17:08;98474.76;;;24.89;39.69
20228;BME280;12195;55.790;37.572;2023-07-20T09:22:33;98480.83;;;25.31;38.77
20228;BME280;12195;55.790;37.572;2023-07-20T09:25:18;98471.88;;;25.04;37.90
20228;BME280;12195;55.790;37.572;2023-07-20T09:28:05;98479.14;;;25.30;37.87
20228;BME280;12195;55.790;37.572;2023-07-20T09:30:41;98480.89;;;24.64;38.28
20228;BME280;12195;55.790;37.572;2023-07-20T09:33:30;98486.67;;;24.67;40.45
20228;BME280;12195;55.790;37.572;2023-07-20T09:36:13;98488.27;;;24.08;42.20
20228;BME280;12195;55.790;37.572;2023-07-20T09:38:49;98483.19;;;23.58;42.52
20228;BME280;12195;55.790;37.572;2023-07-20T09:41:43;98487.03;;;23.77;42.19
20228;BME280;12195;55.790;37.572;2023-07-20T09:44:20;98480.75;;;23.36;42.04
20228;BME280;12195;55.790;37.572;2023-07-20T09:47:06;98500.23;;;23.51;42.50
20228;BME280;12195;55.790;37.572;2023-07-20T09:49:43;98519.45;;;22.56;50.95
20228;BME280;12195;55.790;37.572;2023-07-20T09:52:18;98526.45;;;21.33;55.97
20228;BME280;12195;55.790;37.572;2023-07-20T09:55:04;98525.77;;;20.63;61.38
20228;BME280;12195;55.790;37.572;2023-07-20T09:57:51;98527.34;;;20.03;63.49
20228;BME280;12195;55.790;37.572;2023-07-20T10:00:40;98542.09;;;19.51;65.84
20228;BME280;12195;55.790;37.572;2023-07-20T10:06:29;98546.72;;;18.93;69.69
20228;BME280;12195;55.790;37.572;2023-07-20T10:09:04;98540.99;;;18.14;71.41
20228;BME280;12195;55.790;37.572;2023-07-20T10:11:51;98541.30;;;18.11;73.13
20228;BME280;12195;55.790;37.572;2023-07-20T10:14:29;98527.14;;;17.69;74.97
20228;BME280;12195;55.790;37.572;2023-07-20T10:17:18;98525.94;;;17.97;76.55
20228;BME280;12195;55.790;37.572;2023-07-20T10:20:07;98532.40;;;18.28;78.52
20228;BME280;12195;55.790;37.572;2023-07-20T10:22:55;98531.88;;;18.66;75.24
20228;BME280;12195;55.790;37.572;2023-07-20T10:25:41;98526.94;;;19.11;74.83
20228;BME280;12195;55.790;37.572;2023-07-20T10:28:27;98514.44;;;19.68;71.91
20228;BME280;12195;55.790;37.572;2023-07-20T10:31:01;98516.51;;;20.04;67.61
20228;BME280;12195;55.790;37.572;2023-07-20T10:33:48;98522.60;;;20.59;67.32
20228;BME280;12195;55.790;37.572;2023-07-20T10:36:25;98506.20;;;20.71;64.20
20228;BME280;12195;55.790;37.572;2023-07-20T10:39:02;98511.47;;;21.09;63.40
20228;BME280;12195;55.790;37.572;2023-07-20T10:41:39;98503.81;;;21.43;61.89
20228;BME280;12195;55.790;37.572;2023-07-20T10:44:25;98512.40;;;22.05;62.85
20228;BME280;12195;55.790;37.572;2023-07-20T10:47:12;98500.38;;;22.30;59.35
20228;BME280;12195;55.790;37.572;2023-07-20T10:50:01;98493.83;;;22.47;50.75
20228;BME280;12195;55.790;37.572;2023-07-20T10:52:50;98491.66;;;22.92;55.40
20228;BME280;12195;55.790;37.572;2023-07-20T10:55:32;98508.10;;;22.89;51.00
20228;BME280;12195;55.790;37.572;2023-07-20T10:58:18;98508.64;;;22.64;50.56
20228;BME280;12195;55.790;37.572;2023-07-20T11:01:03;98500.09;;;22.39;48.33
20228;BME280;12195;55.790;37.572;2023-07-20T11:03:37;98488.81;;;22.44;49.31
20228;BME280;12195;55.790;37.572;2023-07-20T11:06:30;98502.42;;;22.78;49.44
20228;BME280;12195;55.790;37.572;2023-07-20T11:09:14;98493.72;;;22.55;46.91
20228;BME280;12195;55.790;37.572;2023-07-20T11:12:14;98503.54;;;22.69;48.46
20228;BME280;12195;55.790;37.572;2023-07-20T11:14:55;98503.78;;;22.24;47.62
20228;BME280;12195;55.790;37.572;2023-07-20T11:17:41;98525.00;;;22.25;49.71
20228;BME280;12195;55.790;37.572;2023-07-20T11:20:16;98539.77;;;21.55;55.56
20228;BME280;12195;55.790;37.572;2023-07-20T11:23:04;98557.42;;;21.42;57.08
20228;BME280;12195;55.790;37.572;2023-07-20T11:25:50;98566.34;;;21.12;56.98
20228;BME280;12195;55.790;37.572;2023-07-20T11:28:35;98557.03;;;20.77;56.62
20228;BME280;12195;55.790;37.572;2023-07-20T11:31:09;98554.84;;;20.11;58.98
20228;BME280;12195;55.790;37.572;2023-07-20T11:33:52;98557.51;;;20.11;61.86
20228;BME280;12195;55.790;37.572;2023-07-20T11:36:28;98561.88;;;19.80;60.28
20228;BME280;12195;55.790;37.572;2023-07-20T11:39:04;98550.50;;;19.94;61.92
20228;BME280;12195;55.790;37.572;2023-07-20T11:42:06;98546.25;;;20.32;58.96
20228;BME280;12195;55.790;37.572;2023-07-20T11:44:40;98542.37;;;20.42;57.94
20228;BME280;12195;55.790;37.572;2023-07-20T11:47:14;98547.66;;;20.81;54.93
20228;BME280;12195;55.790;37.572;2023-07-20T11:50:02;98552.45;;;21.39;54.99
20228;BME280;12195;55.790;37.572;2023-07-20T11:52:35;98533.97;;;21.89;52.78
20228;BME280;12195;55.790;37.572;2023-07-20T11:55:19;98548.34;;;23.17;50.67
20228;BME280;12195;55.790;37.572;2023-07-20T11:58:06;98544.66;;;23.39;49.31
20228;BME280;12195;55.790;37.572;2023-07-20T12:00:51;98549.36;;;23.58;49.40
20228;BME280;12195;55.790;37.572;2023-07-20T12:03:24;98549.07;;;22.90;49.41
20228;BME280;12195;55.790;37.572;2023-07-20T12:06:13;98554.64;;;22.88;49.67
20228;BME280;12195;55.790;37.572;2023-07-20T12:08:48;98540.86;;;22.56;48.44
20228;BME280;12195;55.790;37.572;2023-07-20T12:11:38;98542.72;;;22.91;49.06
20228;BME280;12195;55.790;37.572;2023-07-20T12:14:13;98540.90;;;22.77;46.62
20228;BME280;12195;55.790;37.572;2023-07-20T12:17:00;98548.83;;;23.41;46.50
20228;BME280;12195;55.790;37.572;2023-07-20T12:19:37;98528.37;;;23.89;43.02
20228;BME280;12195;55.790;37.572;2023-07-20T12:22:21;98540.89;;;26.40;41.22
20228;BME280;12195;55.790;37.572;2023-07-20T12:24:55;98530.97;;;27.78;35.96
20228;BME280;12195;55.790;37.572;2023-07-20T12:27:38;98531.34;;;29.78;36.52
20228;BME280;12195;55.790;37.572;2023-07-20T12:30:14;98514.48;;;31.13;30.93
20228;BME280;12195;55.790;37.572;2023-07-20T12:33:00;98521.89;;;32.92;31.68
20228;BME280;12195;55.790;37.572;2023-07-20T12:35:34;98518.70;;;31.81;29.08
20228;BME280;12195;55.790;37.572;2023-07-20T12:38:18;98529.45;;;32.09;29.89
20228;BME280;12195;55.790;37.572;2023-07-20T12:40:51;98518.75;;;32.19;27.98
20228;BME280;12195;55.790;37.572;2023-07-20T12:43:38;98519.23;;;34.70;28.51
20228;BME280;12195;55.790;37.572;2023-07-20T12:46:12;98504.16;;;36.24;23.49
20228;BME280;12195;55.790;37.572;2023-07-20T12:48:56;98511.19;;;38.67;23.24
20228;BME280;12195;55.790;37.572;2023-07-20T12:51:40;98512.70;;;40.48;20.45
20228;BME280;12195;55.790;37.572;2023-07-20T12:54:24;98503.60;;;41.15;19.75
20228;BME280;12195;55.790;37.572;2023-07-20T12:57:07;98508.80;;;39.76;21.75
20228;BME280;12195;55.790;37.572;2023-07-20T12:59:42;98490.44;;;36.39;21.49
20228;BME280;12195;55.790;37.572;2023-07-20T13:02:15;98511.05;;;34.19;23.59
20228;BME280;12195;55.790;37.572;2023-07-20T13:04:58;98515.66;;;33.45;26.25
20228;BME280;12195;55.790;37.572;2023-07-20T13:07:36;98510.55;;;31.81;26.70
20228;BME280;12195;55.790;37.572;2023-07-20T13:10:22;98506.97;;;32.73;27.08
20228;BME280;12195;55.790;37.572;2023-07-20T13:13:05;98504.18;;;34.53;24.96
20228;BME280;12195;55.790;37.572;2023-07-20T13:15:51;98492.09;;;36.35;23.44
20228;BME280;12195;55.790;37.572;2023-07-20T13:18:25;98487.89;;;37.11;20.68
20228;BME280;12195;55.790;37.572;2023-07-20T13:20:57;98502.93;;;38.90;19.59
20228;BME280;12195;55.790;37.572;2023-07-20T13:23:43;98484.67;;;40.46;19.27
20228;BME280;12195;55.790;37.572;2023-07-20T13:26:17;98485.30;;;40.70;17.55
20228;BME280;12195;55.790;37.572;2023-07-20T13:29:01;98487.23;;;42.76;16.34
20228;BME280;12195;55.790;37.572;2023-07-20T13:31:35;98477.14;;;42.72;15.83
20228;BME280;12195;55.790;37.572;2023-07-20T13:34:21;98494.08;;;44.52;16.09
20228;BME280;12195;55.790;37.572;2023-07-20T13:36:54;98482.46;;;41.46;16.62
20228;BME280;12195;55.790;37.572;2023-07-20T13:39:39;98482.15;;;39.90;18.44
20228;BME280;12195;55.790;37.572;2023-07-20T13:42:23;98490.69;;;36.43;21.91
20228;BME280;12195;55.790;37.572;2023-07-20T13:44:57;98516.57;;;33.56;24.57
20228;BME280;12195;55.790;37.572;2023-07-20T13:47:41;98494.84;;;32.38;26.00
20228;BME280;12195;55.790;37.572;2023-07-20T13:50:15;98506.73;;;29.68;29.79
20228;BME280;12195;55.790;37.572;2023-07-20T13:53:01;98516.13;;;29.13;31.27
20228;BME280;12195;55.790;37.572;2023-07-20T13:55:36;98505.97;;;26.71;35.71
20228;BME280;12195;55.790;37.572;2023-07-20T13:58:23;98512.73;;;27.73;34.42
20228;BME280;12195;55.790;37.572;2023-07-20T14:00:57;98504.09;;;28.79;32.79
20228;BME280;12195;55.790;37.572;2023-07-20T14:03:43;98505.05;;;31.60;29.17
20228;BME280;12195;55.790;37.572;2023-07-20T14:06:17;98499.61;;;33.22;25.90
20228;BME280;12195;55.790;37.572;2023-07-20T14:09:03;98489.12;;;35.27;23.90
20228;BME280;12195;55.790;37.572;2023-07-20T14:11:47;98492.02;;;36.50;23.40
20228;BME280;12195;55.790;37.572;2023-07-20T14:14:34;98496.09;;;37.22;21.45